sensor_id;sensor_type;location;lat;lon;timestamp;pressure;altitude;pressure_sealevel;temperature;humidity
15193;BME280;7697;51.630;7.484;2023-02-04T00:00:55;102294.66;;;7.30;98.38
15193;BME280;7697;51.630;7.484;2023-02-04T00:05:57;102306.16;;;7.29;97.80
15193;BME280;7697;51.630;7.484;2023-02-04T00:11:00;102305.34;;;7.29;98.63
15193;BME280;7697;51.630;7.484;2023-02-04T00:16:01;102316.97;;;7.26;98.80
15193;BME280;7697;51.630;7.484;2023-02-04T00:21:03;102329.47;;;7.24;98.60
15193;BME280;7697;51.630;7.484;2023-02-04T00:26:07;102327.63;;;7.15;98.94
15193;BME280;7697;51.630;7.484;2023-02-04T00:31:08;102341.06;;;7.12;98.91
15193;BME280;7697;51.630;7.484;2023-02-04T00:36:10;102337.97;;;7.07;98.96
15193;BME280;7697;51.630;7.484;2023-02-04T00:41:13;102343.53;;;7.04;99.13
15193;BME280;7697;51.630;7.484;2023-02-04T00:46:15;102346.81;;;6.96;99.14
15193;BME280;7697;51.630;7.484;2023-02-04T00:51:16;102349.84;;;6.92;99.26
15193;BME280;7697;51.630;7.484;2023-02-04T00:56:20;102361.63;;;6.88;99.37
15193;BME280;7697;51.630;7.484;2023-02-04T01:01:21;102353.25;;;6.83;99.77
15193;BME280;7697;51.630;7.484;2023-02-04T01:06:23;102366.19;;;6.86;100.00
15193;BME280;7697;51.630;7.484;2023-02-04T01:11:26;102364.75;;;6.82;100.00
15193;BME280;7697;51.630;7.484;2023-02-04T01:16:28;102382.34;;;6.81;100.00
15193;BME280;7697;51.630;7.484;2023-02-04T01:21:30;102395.25;;;6.84;100.00
15193;BME280;7697;51.630;7.484;2023-02-04T01:26:33;102393.59;;;6.83;100.00
15193;BME280;7697;51.630;7.484;2023-02-04T01:31:35;102396.22;;;6.83;99.94
15193;BME280;7697;51.630;7.484;2023-02-04T01:36:36;102399.44;;;6.87;100.00
15193;BME280;7697;51.630;7.484;2023-02-04T01:41:39;102400.66;;;6.83;99.92
15193;BME280;7697;51.630;7.484;2023-02-04T01:46:41;102419.41;;;6.89;100.00
15193;BME280;7697;51.630;7.484;2023-02-04T01:51:43;102435.34;;;6.88;100.00
15193;BME280;7697;51.630;7.484;2023-02-04T01:56:47;102432.72;;;6.88;100.00
15193;BME280;7697;51.630;7.484;2023-02-04T02:01:52;102432.72;;;6.88;100.00
15193;BME280;7697;51.630;7.484;2023-02-04T02:06:57;102422.19;;;6.88;100.00
15193;BME280;7697;51.630;7.484;2023-02-04T02:12:02;102423.16;;;6.87;100.00
15193;BME280;7697;51.630;7.484;2023-02-04T02:17:04;102438.94;;;6.87;100.00
15193;BME280;7697;51.630;7.484;2023-02-04T02:22:11;102445.03;;;6.87;100.00
15193;BME280;7697;51.630;7.484;2023-02-04T02:27:15;102444.59;;;6.82;100.00
15193;BME280;7697;51.630;7.484;2023-02-04T02:32:18;102438.34;;;6.83;100.00
15193;BME280;7697;51.630;7.484;2023-02-04T02:37:20;102443.50;;;6.85;100.00
15193;BME280;7697;51.630;7.484;2023-02-04T02:42:23;102449.59;;;6.85;100.00
15193;BME280;7697;51.630;7.484;2023-02-04T02:47:25;102448.16;;;6.81;100.00
15193;BME280;7697;51.630;7.484;2023-02-04T02:52:27;102459.31;;;6.85;100.00
15193;BME280;7697;51.630;7.484;2023-02-04T02:57:30;102449.72;;;6.84;100.00
15193;BME280;7697;51.630;7.484;2023-02-04T03:02:32;102450.44;;;6.86;100.00
15193;BME280;7697;51.630;7.484;2023-02-04T03:07:34;102448.88;;;6.83;100.00
15193;BME280;7697;51.630;7.484;2023-02-04T03:12:37;102452.34;;;6.84;100.00
15193;BME280;7697;51.630;7.484;2023-02-04T03:17:40;102459.41;;;6.83;100.00
15193;BME280;7697;51.630;7.484;2023-02-04T03:22:42;102462.66;;;6.87;100.00
15193;BME280;7697;51.630;7.484;2023-02-04T03:27:45;102467.06;;;6.86;100.00
15193;BME280;7697;51.630;7.484;2023-02-04T03:32:47;102465.28;;;6.87;100.00
15193;BME280;7697;51.630;7.484;2023-02-04T03:37:49;102473.44;;;6.84;100.00
15193;BME280;7697;51.630;7.484;2023-02-04T03:42:52;102483.72;;;6.87;100.00
15193;BME280;7697;51.630;7.484;2023-02-04T03:47:53;102483.97;;;6.84;100.00
15193;BME280;7697;51.630;7.484;2023-02-04T03:52:55;102486.59;;;6.84;100.00
15193;BME280;7697;51.630;7.484;2023-02-04T03:57:58;102495.19;;;6.86;100.00
15193;BME280;7697;51.630;7.484;2023-02-04T04:03:00;102489.22;;;6.84;100.00
15193;BME280;7697;51.630;7.484;2023-02-04T04:08:02;102500.59;;;6.84;100.00
15193;BME280;7697;51.630;7.484;2023-02-04T04:13:05;102521.28;;;6.89;100.00
15193;BME280;7697;51.630;7.484;2023-02-04T04:18:06;102523.66;;;6.92;100.00
15193;BME280;7697;51.630;7.484;2023-02-04T04:23:08;102531.56;;;6.92;100.00
15193;BME280;7697;51.630;7.484;2023-02-04T04:28:11;102531.94;;;6.87;100.00
15193;BME280;7697;51.630;7.484;2023-02-04T04:33:13;102536.94;;;6.90;100.00
15193;BME280;7697;51.630;7.484;2023-02-04T04:38:14;102549.16;;;6.91;100.00
15193;BME280;7697;51.630;7.484;2023-02-04T04:43:17;102538.91;;;6.88;100.00
15193;BME280;7697;51.630;7.484;2023-02-04T04:48:20;102540.53;;;6.89;100.00
15193;BME280;7697;51.630;7.484;2023-02-04T04:53:22;102549.44;;;6.88;100.00
15193;BME280;7697;51.630;7.484;2023-02-04T04:58:25;102559.81;;;6.90;100.00
15193;BME280;7697;51.630;7.484;2023-02-04T05:03:27;102568.81;;;6.87;100.00
15193;BME280;7697;51.630;7.484;2023-02-04T05:08:28;102578.97;;;6.92;100.00
15193;BME280;7697;51.630;7.484;2023-02-04T05:13:31;102562.59;;;6.88;100.00
15193;BME280;7697;51.630;7.484;2023-02-04T05:18:33;102573.13;;;6.88;100.00
15193;BME280;7697;51.630;7.484;2023-02-04T05:23:35;102597.41;;;6.92;100.00
15193;BME280;7697;51.630;7.484;2023-02-04T05:28:38;102585.19;;;6.91;100.00
15193;BME280;7697;51.630;7.484;2023-02-04T05:33:39;102584.09;;;6.93;100.00
15193;BME280;7697;51.630;7.484;2023-02-04T05:38:41;102597.72;;;6.98;100.00
15193;BME280;7697;51.630;7.484;2023-02-04T05:43:44;102604.53;;;7.01;100.00
15193;BME280;7697;51.630;7.484;2023-02-04T05:48:46;102606.63;;;6.97;100.00
15193;BME280;7697;51.630;7.484;2023-02-04T05:53:47;102610.53;;;7.03;100.00
15193;BME280;7697;51.630;7.484;2023-02-04T05:58:50;102614.97;;;7.02;100.00
15193;BME280;7697;51.630;7.484;2023-02-04T06:03:52;102613.16;;;7.03;100.00
15193;BME280;7697;51.630;7.484;2023-02-04T06:08:53;102628.00;;;7.04;100.00
15193;BME280;7697;51.630;7.484;2023-02-04T06:13:56;102625.81;;;7.09;100.00
15193;BME280;7697;51.630;7.484;2023-02-04T06:18:58;102637.19;;;7.09;100.00
15193;BME280;7697;51.630;7.484;2023-02-04T06:24:00;102642.34;;;7.11;100.00
15193;BME280;7697;51.630;7.484;2023-02-04T06:29:03;102647.19;;;7.06;100.00
15193;BME280;7697;51.630;7.484;2023-02-04T06:34:05;102654.09;;;7.07;100.00
15193;BME280;7697;51.630;7.484;2023-02-04T06:39:06;102645.22;;;7.08;100.00
15193;BME280;7697;51.630;7.484;2023-02-04T06:44:10;102648.81;;;7.07;100.00
15193;BME280;7697;51.630;7.484;2023-02-04T06:49:11;102659.72;;;7.13;100.00
15193;BME280;7697;51.630;7.484;2023-02-04T06:54:13;102658.88;;;7.13;100.00
15193;BME280;7697;51.630;7.484;2023-02-04T06:59:16;102663.88;;;7.16;100.00
15193;BME280;7697;51.630;7.484;2023-02-04T07:04:18;102662.91;;;7.17;100.00
15193;BME280;7697;51.630;7.484;2023-02-04T07:09:20;102681.63;;;7.14;100.00
15193;BME280;7697;51.630;7.484;2023-02-04T07:14:23;102698.13;;;7.16;100.00
15193;BME280;7697;51.630;7.484;2023-02-04T07:19:25;102693.84;;;7.15;100.00
15193;BME280;7697;51.630;7.484;2023-02-04T07:24:26;102687.84;;;7.13;100.00
15193;BME280;7697;51.630;7.484;2023-02-04T07:29:30;102693.84;;;7.15;100.00
15193;BME280;7697;51.630;7.484;2023-02-04T07:34:31;102695.50;;;7.16;100.00
15193;BME280;7697;51.630;7.484;2023-02-04T07:39:33;102709.38;;;7.18;100.00
15193;BME280;7697;51.630;7.484;2023-02-04T07:44:36;102701.38;;;7.20;100.00
15193;BME280;7697;51.630;7.484;2023-02-04T07:49:38;102707.22;;;7.23;100.00
15193;BME280;7697;51.630;7.484;2023-02-04T07:54:40;102717.50;;;7.26;100.00
15193;BME280;7697;51.630;7.484;2023-02-04T07:59:43;102723.00;;;7.34;100.00
15193;BME280;7697;51.630;7.484;2023-02-04T08:04:45;102722.03;;;7.35;100.00
15193;BME280;7697;51.630;7.484;2023-02-04T08:09:46;102728.50;;;7.42;100.00
15193;BME280;7697;51.630;7.484;2023-02-04T08:14:50;102729.31;;;7.43;100.00
15193;BME280;7697;51.630;7.484;2023-02-04T08:19:52;102740.69;;;7.43;100.00
15193;BME280;7697;51.630;7.484;2023-02-04T08:24:54;102750.16;;;7.46;100.00
15193;BME280;7697;51.630;7.484;2023-02-04T08:29:57;102754.69;;;7.55;100.00
15193;BME280;7697;51.630;7.484;2023-02-04T08:34:58;102764.16;;;7.58;100.00
15193;BME280;7697;51.630;7.484;2023-02-04T08:40:00;102776.94;;;7.62;100.00
15193;BME280;7697;51.630;7.484;2023-02-04T08:45:04;102781.59;;;7.70;100.00
15193;BME280;7697;51.630;7.484;2023-02-04T08:50:07;102787.34;;;7.75;100.00
15193;BME280;7697;51.630;7.484;2023-02-04T08:55:09;102796.81;;;7.77;100.00
15193;BME280;7697;51.630;7.484;2023-02-04T09:00:14;102806.50;;;7.77;100.00
15193;BME280;7697;51.630;7.484;2023-02-04T09:05:16;102809.59;;;7.82;100.00
15193;BME280;7697;51.630;7.484;2023-02-04T09:10:18;102803.97;;;7.86;100.00
15193;BME280;7697;51.630;7.484;2023-02-04T09:15:21;102788.53;;;8.03;100.00
15193;BME280;7697;51.630;7.484;2023-02-04T09:20:23;102808.00;;;8.22;100.00
15193;BME280;7697;51.630;7.484;2023-02-04T09:25:25;102807.44;;;8.40;100.00
15193;BME280;7697;51.630;7.484;2023-02-04T09:30:28;102814.53;;;8.70;100.00
15193;BME280;7697;51.630;7.484;2023-02-04T09:35:30;102814.78;;;8.97;100.00
15193;BME280;7697;51.630;7.484;2023-02-04T09:40:33;102819.28;;;9.06;100.00
15193;BME280;7697;51.630;7.484;2023-02-04T09:45:38;102819.38;;;8.85;100.00
15193;BME280;7697;51.630;7.484;2023-02-04T09:50:41;102817.31;;;8.98;100.00
15193;BME280;7697;51.630;7.484;2023-02-04T09:55:44;102833.66;;;9.23;99.96
15193;BME280;7697;51.630;7.484;2023-02-04T10:00:57;102835.00;;;9.38;99.67
15193;BME280;7697;51.630;7.484;2023-02-04T10:05:59;102838.16;;;9.32;98.44
15193;BME280;7697;51.630;7.484;2023-02-04T10:11:00;102850.16;;;9.36;98.57
15193;BME280;7697;51.630;7.484;2023-02-04T10:16:12;102851.94;;;9.35;98.09
15193;BME280;7697;51.630;7.484;2023-02-04T10:21:16;102855.34;;;9.47;97.93
15193;BME280;7697;51.630;7.484;2023-02-04T10:26:20;102856.63;;;9.62;97.10
15193;BME280;7697;51.630;7.484;2023-02-04T10:31:29;102859.00;;;9.85;95.78
15193;BME280;7697;51.630;7.484;2023-02-04T10:36:32;102857.63;;;10.00;96.25
15193;BME280;7697;51.630;7.484;2023-02-04T10:41:35;102857.34;;;10.03;94.65
15193;BME280;7697;51.630;7.484;2023-02-04T10:46:39;102856.19;;;9.76;93.98
15193;BME280;7697;51.630;7.484;2023-02-04T10:51:41;102866.81;;;9.86;94.82
15193;BME280;7697;51.630;7.484;2023-02-04T10:56:43;102849.56;;;10.01;94.87
15193;BME280;7697;51.630;7.484;2023-02-04T11:01:46;102870.75;;;10.11;93.93
15193;BME280;7697;51.630;7.484;2023-02-04T11:06:49;102863.94;;;10.18;93.59
15193;BME280;7697;51.630;7.484;2023-02-04T11:11:51;102868.38;;;10.08;92.91
15193;BME280;7697;51.630;7.484;2023-02-04T11:16:55;102855.53;;;10.13;92.92
15193;BME280;7697;51.630;7.484;2023-02-04T11:22:18;102870.06;;;10.19;92.68
15193;BME280;7697;51.630;7.484;2023-02-04T11:27:24;102871.19;;;10.26;92.99
15193;BME280;7697;51.630;7.484;2023-02-04T11:32:38;102857.63;;;10.38;93.08
15193;BME280;7697;51.630;7.484;2023-02-04T11:37:42;102866.53;;;10.47;93.74
15193;BME280;7697;51.630;7.484;2023-02-04T11:42:44;102858.34;;;10.40;92.21
15193;BME280;7697;51.630;7.484;2023-02-04T11:47:49;102866.84;;;10.34;91.59
15193;BME280;7697;51.630;7.484;2023-02-04T11:52:53;102867.44;;;10.28;92.39
15193;BME280;7697;51.630;7.484;2023-02-04T11:57:55;102866.41;;;10.39;92.63
15193;BME280;7697;51.630;7.484;2023-02-04T12:02:59;102871.72;;;10.39;92.39
15193;BME280;7697;51.630;7.484;2023-02-04T12:08:09;102873.97;;;10.34;91.86
15193;BME280;7697;51.630;7.484;2023-02-04T12:13:16;102866.00;;;10.43;91.71
15193;BME280;7697;51.630;7.484;2023-02-04T12:18:19;102860.69;;;10.53;90.40
15193;BME280;7697;51.630;7.484;2023-02-04T12:23:21;102864.31;;;10.52;90.67
15193;BME280;7697;51.630;7.484;2023-02-04T12:28:23;102874.06;;;10.51;90.03
15193;BME280;7697;51.630;7.484;2023-02-04T12:33:26;102882.41;;;10.66;90.46
15193;BME280;7697;51.630;7.484;2023-02-04T12:38:28;102882.84;;;10.62;89.36
15193;BME280;7697;51.630;7.484;2023-02-04T12:43:29;102890.66;;;10.63;89.84
15193;BME280;7697;51.630;7.484;2023-02-04T12:48:32;102893.31;;;10.73;90.02
15193;BME280;7697;51.630;7.484;2023-02-04T12:53:34;102895.78;;;10.65;88.96
15193;BME280;7697;51.630;7.484;2023-02-04T12:58:36;102907.28;;;10.56;87.81
15193;BME280;7697;51.630;7.484;2023-02-04T13:03:39;102894.03;;;10.56;88.20
15193;BME280;7697;51.630;7.484;2023-02-04T13:08:40;102891.06;;;10.59;88.39
15193;BME280;7697;51.630;7.484;2023-02-04T13:13:42;102895.66;;;10.66;88.51
15193;BME280;7697;51.630;7.484;2023-02-04T13:18:45;102876.00;;;10.69;88.20
15193;BME280;7697;51.630;7.484;2023-02-04T13:23:47;102878.13;;;10.56;88.72
15193;BME280;7697;51.630;7.484;2023-02-04T13:28:48;102880.72;;;10.65;89.34
15193;BME280;7697;51.630;7.484;2023-02-04T13:33:51;102884.66;;;10.61;89.40
15193;BME280;7697;51.630;7.484;2023-02-04T13:38:53;102873.50;;;10.58;89.35
15193;BME280;7697;51.630;7.484;2023-02-04T13:43:55;102885.91;;;10.47;88.45
15193;BME280;7697;51.630;7.484;2023-02-04T13:48:59;102885.53;;;10.33;88.66
15193;BME280;7697;51.630;7.484;2023-02-04T13:54:01;102881.34;;;10.21;89.16
15193;BME280;7697;51.630;7.484;2023-02-04T13:59:02;102886.81;;;10.29;89.47
15193;BME280;7697;51.630;7.484;2023-02-04T14:04:05;102876.34;;;10.18;88.75
15193;BME280;7697;51.630;7.484;2023-02-04T14:09:07;102881.34;;;10.11;88.64
15193;BME280;7697;51.630;7.484;2023-02-04T14:14:09;102884.50;;;10.05;88.97
15193;BME280;7697;51.630;7.484;2023-02-04T14:19:12;102887.72;;;10.08;89.18
15193;BME280;7697;51.630;7.484;2023-02-04T14:24:14;102881.88;;;10.05;88.79
15193;BME280;7697;51.630;7.484;2023-02-04T14:29:16;102877.69;;;10.02;88.68
15193;BME280;7697;51.630;7.484;2023-02-04T14:34:19;102896.78;;;10.06;88.58
15193;BME280;7697;51.630;7.484;2023-02-04T14:39:21;102895.69;;;10.08;88.88
15193;BME280;7697;51.630;7.484;2023-02-04T14:44:22;102886.63;;;10.11;88.46
15193;BME280;7697;51.630;7.484;2023-02-04T14:49:26;102887.28;;;10.03;88.14
15193;BME280;7697;51.630;7.484;2023-02-04T14:54:27;102900.13;;;10.08;87.95
15193;BME280;7697;51.630;7.484;2023-02-04T14:59:29;102899.75;;;10.22;88.28
15193;BME280;7697;51.630;7.484;2023-02-04T15:04:32;102898.63;;;10.34;87.55
15193;BME280;7697;51.630;7.484;2023-02-04T15:09:34;102902.81;;;10.46;87.53
15193;BME280;7697;51.630;7.484;2023-02-04T15:14:35;102902.53;;;10.49;87.10
15193;BME280;7697;51.630;7.484;2023-02-04T15:19:39;102884.94;;;10.58;86.53
15193;BME280;7697;51.630;7.484;2023-02-04T15:24:40;102885.25;;;10.55;86.31
15193;BME280;7697;51.630;7.484;2023-02-04T15:29:42;102894.69;;;10.58;87.18
15193;BME280;7697;51.630;7.484;2023-02-04T15:34:45;102895.28;;;10.51;86.70
15193;BME280;7697;51.630;7.484;2023-02-04T15:39:47;102900.31;;;10.35;86.35
15193;BME280;7697;51.630;7.484;2023-02-04T15:44:48;102911.44;;;10.29;86.75
15193;BME280;7697;51.630;7.484;2023-02-04T15:49:52;102904.19;;;10.22;86.69
15193;BME280;7697;51.630;7.484;2023-02-04T15:54:53;102925.78;;;10.07;86.49
15193;BME280;7697;51.630;7.484;2023-02-04T15:59:55;102931.06;;;9.98;87.10
15193;BME280;7697;51.630;7.484;2023-02-04T16:04:58;102924.91;;;9.88;86.94
15193;BME280;7697;51.630;7.484;2023-02-04T16:10:00;102921.38;;;9.77;86.89
15193;BME280;7697;51.630;7.484;2023-02-04T16:15:02;102929.72;;;9.63;87.30
15193;BME280;7697;51.630;7.484;2023-02-04T16:20:06;102934.13;;;9.53;87.64
15193;BME280;7697;51.630;7.484;2023-02-04T16:25:08;102944.09;;;9.40;88.29
15193;BME280;7697;51.630;7.484;2023-02-04T16:30:11;102948.94;;;9.35;88.15
15193;BME280;7697;51.630;7.484;2023-02-04T16:35:14;102952.13;;;9.29;88.83
15193;BME280;7697;51.630;7.484;2023-02-04T16:40:16;102945.69;;;9.22;88.85
15193;BME280;7697;51.630;7.484;2023-02-04T16:45:18;102951.06;;;9.11;88.90
15193;BME280;7697;51.630;7.484;2023-02-04T16:50:21;102942.25;;;9.00;89.56
15193;BME280;7697;51.630;7.484;2023-02-04T16:55:23;102953.84;;;8.88;89.80
15193;BME280;7697;51.630;7.484;2023-02-04T17:00:28;102967.69;;;8.81;89.82
15193;BME280;7697;51.630;7.484;2023-02-04T17:05:31;102975.78;;;8.68;90.14
15193;BME280;7697;51.630;7.484;2023-02-04T17:10:33;102987.38;;;8.56;91.16
15193;BME280;7697;51.630;7.484;2023-02-04T17:15:53;102982.38;;;8.42;90.93
15193;BME280;7697;51.630;7.484;2023-02-04T17:21:01;102979.78;;;8.31;92.06
15193;BME280;7697;51.630;7.484;2023-02-04T17:26:03;102987.81;;;8.18;91.94
15193;BME280;7697;51.630;7.484;2023-02-04T17:31:04;102976.44;;;8.06;92.15
15193;BME280;7697;51.630;7.484;2023-02-04T17:36:08;102979.81;;;7.97;92.56
15193;BME280;7697;51.630;7.484;2023-02-04T17:41:09;102979.88;;;7.86;92.12
15193;BME280;7697;51.630;7.484;2023-02-04T17:46:11;102985.88;;;7.77;92.58
15193;BME280;7697;51.630;7.484;2023-02-04T17:51:14;102988.00;;;7.72;93.04
15193;BME280;7697;51.630;7.484;2023-02-04T17:56:16;102975.53;;;7.63;92.98
15193;BME280;7697;51.630;7.484;2023-02-04T18:01:18;102969.47;;;7.51;93.17
15193;BME280;7697;51.630;7.484;2023-02-04T18:06:23;102983.34;;;7.53;93.16
15193;BME280;7697;51.630;7.484;2023-02-04T18:11:30;102982.50;;;7.41;93.31
15193;BME280;7697;51.630;7.484;2023-02-04T18:16:38;102983.91;;;7.34;93.34
15193;BME280;7697;51.630;7.484;2023-02-04T18:21:41;102986.31;;;7.26;93.63
15193;BME280;7697;51.630;7.484;2023-02-04T18:26:44;102982.47;;;7.19;93.80
15193;BME280;7697;51.630;7.484;2023-02-04T18:31:49;102969.28;;;7.08;93.68
15193;BME280;7697;51.630;7.484;2023-02-04T18:36:54;102972.13;;;6.94;94.34
15193;BME280;7697;51.630;7.484;2023-02-04T18:41:55;102977.97;;;6.86;93.85
15193;BME280;7697;51.630;7.484;2023-02-04T18:46:57;102974.81;;;6.81;94.65
15193;BME280;7697;51.630;7.484;2023-02-04T18:52:12;102984.25;;;6.72;94.84
15193;BME280;7697;51.630;7.484;2023-02-04T18:57:21;102981.47;;;6.63;94.87
15193;BME280;7697;51.630;7.484;2023-02-04T19:02:35;102992.81;;;6.52;94.03
15193;BME280;7697;51.630;7.484;2023-02-04T19:07:39;102994.44;;;6.42;94.30
15193;BME280;7697;51.630;7.484;2023-02-04T19:12:41;102990.16;;;6.28;94.10
15193;BME280;7697;51.630;7.484;2023-02-04T19:17:43;102982.00;;;6.20;95.01
15193;BME280;7697;51.630;7.484;2023-02-04T19:22:47;102980.88;;;6.12;94.54
15193;BME280;7697;51.630;7.484;2023-02-04T19:27:53;102990.66;;;6.10;94.31
15193;BME280;7697;51.630;7.484;2023-02-04T19:32:56;103001.72;;;6.02;94.45
15193;BME280;7697;51.630;7.484;2023-02-04T19:38:00;102993.53;;;5.94;94.32
15193;BME280;7697;51.630;7.484;2023-02-04T19:43:25;102998.56;;;5.84;94.52
15193;BME280;7697;51.630;7.484;2023-02-04T19:48:32;103000.69;;;5.79;94.35
15193;BME280;7697;51.630;7.484;2023-02-04T19:53:37;103002.09;;;5.72;94.96
15193;BME280;7697;51.630;7.484;2023-02-04T19:58:40;103007.97;;;5.63;95.06
15193;BME280;7697;51.630;7.484;2023-02-04T20:03:43;103008.47;;;5.55;94.92
15193;BME280;7697;51.630;7.484;2023-02-04T20:08:48;103019.34;;;5.51;94.70
15193;BME280;7697;51.630;7.484;2023-02-04T20:13:54;102995.13;;;5.46;95.50
15193;BME280;7697;51.630;7.484;2023-02-04T20:18:57;102988.09;;;5.46;95.61
15193;BME280;7697;51.630;7.484;2023-02-04T20:24:04;102986.00;;;5.51;95.84
15193;BME280;7697;51.630;7.484;2023-02-04T20:29:16;102984.72;;;5.57;95.75
15193;BME280;7697;51.630;7.484;2023-02-04T20:34:21;102982.09;;;5.57;96.19
15193;BME280;7697;51.630;7.484;2023-02-04T20:39:32;102976.09;;;5.55;96.21
15193;BME280;7697;51.630;7.484;2023-02-04T20:44:38;102980.13;;;5.60;96.24
15193;BME280;7697;51.630;7.484;2023-02-04T20:49:41;102987.91;;;5.62;96.07
15193;BME280;7697;51.630;7.484;2023-02-04T20:54:46;102973.47;;;5.55;96.66
15193;BME280;7697;51.630;7.484;2023-02-04T20:59:47;102959.00;;;5.49;96.69
15193;BME280;7697;51.630;7.484;2023-02-04T21:04:49;102959.53;;;5.54;96.89
15193;BME280;7697;51.630;7.484;2023-02-04T21:09:54;102959.41;;;5.56;96.77
15193;BME280;7697;51.630;7.484;2023-02-04T21:14:57;102953.19;;;5.57;97.27
15193;BME280;7697;51.630;7.484;2023-02-04T21:19:58;102968.75;;;5.60;96.77
15193;BME280;7697;51.630;7.484;2023-02-04T21:25:03;102970.34;;;5.62;96.78
15193;BME280;7697;51.630;7.484;2023-02-04T21:30:05;102980.31;;;5.70;96.40
15193;BME280;7697;51.630;7.484;2023-02-04T21:35:07;102985.34;;;5.73;96.08
15193;BME280;7697;51.630;7.484;2023-02-04T21:40:10;102983.84;;;5.82;96.98
15193;BME280;7697;51.630;7.484;2023-02-04T21:45:12;102994.81;;;5.88;96.55
15193;BME280;7697;51.630;7.484;2023-02-04T21:50:15;102988.72;;;5.88;96.63
15193;BME280;7697;51.630;7.484;2023-02-04T21:55:19;102987.31;;;5.82;96.21
15193;BME280;7697;51.630;7.484;2023-02-04T22:00:22;102986.59;;;5.80;96.66
15193;BME280;7697;51.630;7.484;2023-02-04T22:05:24;102977.53;;;5.84;96.91
15193;BME280;7697;51.630;7.484;2023-02-04T22:10:27;102964.28;;;5.86;97.45
15193;BME280;7697;51.630;7.484;2023-02-04T22:15:28;102965.97;;;5.87;97.17
15193;BME280;7697;51.630;7.484;2023-02-04T22:20:30;102965.06;;;5.88;96.88
15193;BME280;7697;51.630;7.484;2023-02-04T22:25:33;102953.78;;;5.86;96.55
15193;BME280;7697;51.630;7.484;2023-02-04T22:30:35;102952.66;;;5.90;96.45
15193;BME280;7697;51.630;7.484;2023-02-04T22:35:37;102955.13;;;5.91;96.92
15193;BME280;7697;51.630;7.484;2023-02-04T22:40:40;102950.63;;;5.93;96.25
15193;BME280;7697;51.630;7.484;2023-02-04T22:45:41;102941.66;;;5.83;96.76
15193;BME280;7697;51.630;7.484;2023-02-04T22:50:43;102952.09;;;5.85;96.21
15193;BME280;7697;51.630;7.484;2023-02-04T22:55:46;102945.97;;;5.84;96.92
15193;BME280;7697;51.630;7.484;2023-02-04T23:00:48;102956.13;;;5.90;97.45
15193;BME280;7697;51.630;7.484;2023-02-04T23:05:50;102965.34;;;5.96;97.12
15193;BME280;7697;51.630;7.484;2023-02-04T23:10:53;102960.53;;;5.90;96.50
15193;BME280;7697;51.630;7.484;2023-02-04T23:15:54;102958.75;;;5.90;96.82
15193;BME280;7697;51.630;7.484;2023-02-04T23:20:56;102962.09;;;5.92;96.48
15193;BME280;7697;51.630;7.484;2023-02-04T23:25:59;102960.41;;;5.91;96.47
15193;BME280;7697;51.630;7.484;2023-02-04T23:31:02;102963.28;;;5.88;96.75
15193;BME280;7697;51.630;7.484;2023-02-04T23:36:05;102954.53;;;5.88;96.96
15193;BME280;7697;51.630;7.484;2023-02-04T23:41:08;102951.03;;;5.87;96.86
15193;BME280;7697;51.630;7.484;2023-02-04T23:46:10;102954.31;;;5.91;96.97
15193;BME280;7697;51.630;7.484;2023-02-04T23:51:11;102941.41;;;5.88;96.68
15193;BME280;7697;51.630;7.484;2023-02-04T23:56:14;102946.31;;;5.92;97.51
